METAR Data
IDs: Format: Raw Decoded Include TAF

Data at: 0158 UTC 05 Jun 2020

KSTL 050151Z 00000KT 10SM FEW250 27/18 A2982 RMK AO2 SLP086 T02720183
KSTL 050051Z 31003KT 10SM FEW043 FEW250 28/18 A2981 RMK AO2 SLP082 T02830183
KSTL 042351Z 00000KT 10SM FEW043 SCT250 29/18 A2980 RMK AO2 SLP078 T02940183 10300 20256 55004
KSTL 042251Z 33004KT 10SM FEW046 BKN250 29/18 A2979 RMK AO2 SLP077 T02940183
KSTL 042151Z 10003KT 10SM FEW041 BKN250 29/18 A2979 RMK AO2 SLP078 T02890178
KSTL 042051Z 01005KT 10SM SCT038 SCT150 BKN250 29/19 A2981 RMK AO2 SLP082 T02890189 56013
KSTL 041951Z 03007KT 10SM FEW036 FEW100 BKN150 BKN250 28/18 A2981 RMK AO2 SLP084 T02830183
KSTL 041851Z 09005KT 10SM FEW035 SCT110 BKN150 OVC250 27/18 A2983 RMK AO2 SLP089 T02670178
KSTL 041751Z 00000KT 10SM FEW035 FEW100 BKN150 OVC250 26/18 A2985 RMK AO2 SLP096 T02560178 10261 20217 50012
KSTL 041651Z 17003KT 10SM FEW030 SCT100 BKN150 OVC250 25/18 A2985 RMK AO2 SLP098 T02500178
KSTL 041551Z 12004KT 10SM FEW030 FEW100 SCT160 OVC250 24/18 A2983 RMK AO2 SLP092 T02390183
KSTL 041451Z 32003KT 10SM FEW100 BKN150 OVC200 23/17 A2981 RMK AO2 SLP083 T02280172 58001
KSTL 041351Z 24005KT 10SM FEW100 OVC160 22/17 A2983 RMK AO2 SLP089 T02170167
KSTL 041251Z 22010KT 10SM FEW050 FEW100 BKN180 OVC250 22/17 A2983 RMK AO2 SLP088 T02170172
KSTL 041151Z 23004KT 10SM FEW050 FEW110 BKN200 OVC250 22/18 A2981 RMK AO2 SLP082 60010 70018 T02170178 10233 20211 50033
KSTL 041051Z 10004KT 10SM FEW050 FEW110 OVC160 22/17 A2981 RMK AO2 SLP082 VIRGA SW-NW T02170172
KSTL 040951Z 06006KT 10SM OVC150 22/17 A2981 RMK AO2 PRESRR SLP082 T02170172
KSTL 040851Z 11010KT 10SM FEW110 OVC150 22/17 A2971 RMK AO2 PK WND 22027/0759 RAE09 SLP047 P0000 60010 T02170167 58047
KSTL 040751Z 21017KT 10SM -RA FEW110 OVC130 21/17 A2974 RMK AO2 WSHFT 0705 PRESFR SLP057 P0003 T02110172
KSTL 040725Z 26016KT 10SM -RA BKN110 OVC130 22/18 A2978 RMK AO2 WSHFT 0705 PRESFR P0003 T02170178
KSTL 040651Z 30008KT 10SM -RA FEW080 OVC110 21/18 A2984 RMK AO2 TSB0558E24 SLP092 P0007 T02110178
KSTL 040624Z 33008KT 10SM -RA FEW080 OVC110 22/18 A2986 RMK AO2 TSB0558E24 P0004 T02170178
KSTL 040558Z COR 00000KT 8SM -TSRA FEW090CB OVC120 23/17 A2986 RMK AO2 LTG DSNT W-N TSB58 OCNL LTGCG NW TS NW MOV S P0000 T02280172
KSTL 040551Z 03007KT 10SM -RA FEW090 OVC120 23/17 A2985 RMK AO2 TSB23E50 SLP095 P0003 60008 T02330167 10317 20217 403390217 53021
KSTL 040523Z 26012KT 10SM -TSRA FEW075CB OVC120 23/17 A2982 RMK AO2 LTG DSNT NW TSB23 OCNL LTGIC NW TS NW MOV S P0001 T02280172
KSTL 040451Z 25015KT 9SM -RA OVC120 22/18 A2980 RMK AO2 TSE33 SLP079 P0004 T02220178
KSTL 040433Z 29015KT 9SM -RA OVC120 22/18 A2979 RMK AO2 TSE33 P0003 T02220178
KSTL 040351Z 30016G25KT 9SM -TSRA FEW050CB FEW080 BKN120 OVC250 23/17 A2980 RMK AO2 LTG DSNT W RAB0259 SLP080 OCNL LTGICCCCACG SW-NW TS SW-NW MOV S P0001 T02280172
KSTL 040251Z 21007KT 10SM TS FEW055CB SCT095 BKN200 OVC250 26/16 A2979 RMK AO2 TSE0159B40 SLP074 FRQ LTGICCCCACG SW-NW TS SW-NW MOV S T02610161 50001
KSTL 040240Z 25007KT 10SM TS FEW050CB SCT120 BKN200 OVC250 26/16 A2979 RMK AO2 TSE0159B40 FRQ LTGICCCCACG SW-NW TS SW-NW MOV S T02610156
KSTL 040159Z 30008KT 10SM SCT050 SCT095 BKN150 BKN250 26/18 A2980 RMK AO2 TSE59 FRQ LTGICCCCACG DSNT SW-NW CB DSNT SW-NW MOV SW T02560178
KSTL 040151Z 30008KT 10SM TS FEW050CB FEW095 BKN150 BKN250 26/18 A2980 RMK AO2 SLP079 FRQ LTGICCCCACG SW-NW TS SW-NW MOV SW T02560183
KSTL 040051Z 21006KT 10SM TS FEW050CB SCT110 BKN200 BKN250 31/19 A2978 RMK AO2 LTG DSNT S-W TSB50 SLP072 OCNL LTGICCG S AND SW-W TS S MOV E TS SW-W MOV S T03110194
KSTL 032351Z 21010KT 10SM SCT055 SCT110 BKN250 32/19 A2978 RMK AO2 LTG DSNT W AND NW SLP073 OCNL LTGICCG DSNT W-NW CB DSNT W-NW MOV S TCU DSNT SW-W T03170194 10339 20311 56004
KSTL 032251Z 25008KT 10SM SCT055TCU BKN250 33/19 A2978 RMK AO2 SLP073 CB DSNT NW-N MOV S TCU ALQDS T03280194
KSTL 032151Z 20009KT 10SM SCT050 BKN250 33/20 A2979 RMK AO2 SLP075 CB DSNT NW-N MOV SW T03330200
KSTL 032051Z 22012G19KT 210V270 10SM BKN050 BKN250 34/21 A2980 RMK AO2 SLP076 CB DSNT SW AND DSNT NW-N MOV SE T03390206 58036
KSTL 031951Z 20006KT 10SM SCT050TCU SCT085 BKN250 33/21 A2983 RMK AO2 SLP089 TCU SE T03280206
KSTL 031851Z 24007KT 10SM SCT041TCU SCT085 BKN250 32/21 A2987 RMK AO2 SLP102 TCU SE-S T03220206
KSTL 031751Z 00000KT 10SM FEW040 SCT060 BKN085 BKN250 31/21 A2990 RMK AO2 SLP112 ACC SE T03110206 10317 20228 57011
KSTL 031651Z 22007KT 10SM FEW060 BKN075 BKN250 30/21 A2992 RMK AO2 SLP118 ACC NW-NE T03000206
KSTL 031551Z 23009KT 10SM BKN055 BKN250 28/19 A2993 RMK AO2 SLP121 T02830194
KSTL 031451Z 23006KT 10SM FEW050 SCT070 BKN250 28/19 A2994 RMK AO2 SLP125 ACC S-SW T02780194 58002